Time;durP1;ratioP1;P1;durP2;ratioP2;P2;SDS_P1;SDS_P2;PMS_P1;PMS_P2;Temp;Humidity;BMP_temperature;BMP_pressure;BME280_temperature;BME280_humidity;BME280_pressure;Samples;Min_cycle;Max_cycle;Signal;HPM_P1;HPM_P2
2023/04/10 00:02:08;;;;;;;28.75;16.25;;;9.80;99.40;;;;;;5034430;28;20114;-70
2023/04/10 00:04:33;;;;;;;25.20;15.73;;;9.80;99.40;;;;;;5028847;28;20054;-70
2023/04/10 00:06:59;;;;;;;18.65;13.60;;;9.80;99.40;;;;;;5027548;28;20032;-70
2023/04/10 00:09:25;;;;;;;25.13;16.38;;;9.80;99.50;;;;;;5027093;28;20399;-71
2023/04/10 00:11:50;;;;;;;23.20;14.70;;;9.80;99.50;;;;;;5032110;28;20459;-71
2023/04/10 00:14:21;;;;;;;26.92;16.05;;;9.70;99.40;;;;;;5031609;28;20037;-71
2023/04/10 00:16:48;;;;;;;23.92;14.98;;;9.80;99.50;;;;;;5027060;28;20033;-71
2023/04/10 00:19:14;;;;;;;19.83;14.55;;;9.80;99.50;;;;;;5032196;28;20036;-70
2023/04/10 00:21:40;;;;;;;23.05;14.38;;;9.70;99.40;;;;;;5032226;28;20033;-71
2023/04/10 00:24:06;;;;;;;22.35;14.32;;;9.70;99.40;;;;;;5017025;28;20041;-71
2023/04/10 00:26:31;;;;;;;22.67;14.55;;;9.60;99.40;;;;;;5024256;28;20029;-71
2023/04/10 00:28:57;;;;;;;25.83;15.68;;;9.70;99.40;;;;;;5026699;28;20032;-70
2023/04/10 00:31:23;;;;;;;21.05;15.85;;;9.60;99.40;;;;;;5034852;28;20028;-71
2023/04/10 00:33:48;;;;;;;28.83;17.42;;;9.60;99.50;;;;;;5031356;28;20504;-71
2023/04/10 00:36:14;;;;;;;24.63;16.33;;;9.60;99.50;;;;;;5033675;28;20020;-70
2023/04/10 00:38:40;;;;;;;26.10;15.48;;;9.50;99.50;;;;;;5030453;28;20033;-71
2023/04/10 00:41:06;;;;;;;23.40;15.68;;;9.50;99.50;;;;;;5032859;28;20171;-70
2023/04/10 00:43:32;;;;;;;23.17;16.38;;;9.50;99.60;;;;;;5029957;28;20206;-70
2023/04/10 00:45:58;;;;;;;24.98;16.13;;;9.50;99.60;;;;;;5030738;28;20025;-70
2023/04/10 00:48:24;;;;;;;25.60;17.25;;;9.50;99.60;;;;;;5032173;28;20021;-71
2023/04/10 00:50:49;;;;;;;29.08;18.05;;;9.40;99.60;;;;;;5033438;28;20388;-71
2023/04/10 00:53:15;;;;;;;25.83;18.15;;;9.40;99.60;;;;;;5031926;28;20044;-71
2023/04/10 00:55:41;;;;;;;25.17;18.55;;;9.40;99.70;;;;;;5029105;28;20488;-71
2023/04/10 00:58:07;;;;;;;24.38;16.85;;;9.40;99.70;;;;;;5029687;28;20028;-71
2023/04/10 01:00:33;;;;;;;27.67;17.05;;;9.40;99.70;;;;;;5025424;28;20131;-71
2023/04/10 01:03:00;;;;;;;25.52;16.65;;;9.40;99.60;;;;;;5033270;28;20025;-69
2023/04/10 01:05:34;;;;;;;28.17;17.73;;;9.40;99.60;;;;;;5028412;28;20029;-70
2023/04/10 01:08:16;;;;;;;29.25;17.55;;;9.30;99.70;;;;;;5033804;28;20469;-70
2023/04/10 01:10:50;;;;;;;25.95;17.27;;;9.20;99.70;;;;;;5032747;28;20086;-70
2023/04/10 01:13:31;;;;;;;26.35;16.77;;;9.10;99.80;;;;;;5028402;28;20464;-70
2023/04/10 01:16:41;;;;;;;24.45;17.40;;;9.20;99.90;;;;;;5030553;28;20066;-70
2023/04/10 01:19:59;;;;;;;24.58;16.90;;;9.10;99.80;;;;;;5003497;28;20121;-70
2023/04/10 01:22:32;;;;;;;24.55;16.92;;;9.10;99.80;;;;;;5032935;28;20113;-70
2023/04/10 01:25:16;;;;;;;25.73;17.53;;;9.00;99.80;;;;;;5034223;28;20021;-70
2023/04/10 01:28:03;;;;;;;27.25;18.13;;;9.00;99.80;;;;;;5034856;28;20291;-70
2023/04/10 01:30:31;;;;;;;24.85;17.02;;;9.00;99.70;;;;;;5032391;28;20032;-70
2023/04/10 01:32:59;;;;;;;26.27;17.35;;;8.90;99.80;;;;;;5035605;28;20025;-70
2023/04/10 01:35:27;;;;;;;25.85;17.52;;;8.90;99.90;;;;;;5034180;28;20056;-70
2023/04/10 01:37:54;;;;;;;25.63;17.02;;;8.90;99.90;;;;;;5034499;28;20025;-70
2023/04/10 01:40:21;;;;;;;26.23;18.00;;;8.80;99.80;;;;;;5033736;28;20036;-70
2023/04/10 01:42:51;;;;;;;25.27;16.42;;;8.80;99.90;;;;;;5032495;28;20033;-70
2023/04/10 01:45:20;;;;;;;27.55;17.80;;;8.80;99.90;;;;;;5027500;28;20021;-70
2023/04/10 01:47:46;;;;;;;28.02;18.73;;;8.80;99.90;;;;;;5037594;28;20028;-70
2023/04/10 01:50:13;;;;;;;28.70;18.67;;;8.70;99.90;;;;;;5028516;28;20036;-70
2023/04/10 01:52:40;;;;;;;24.55;17.08;;;8.60;99.90;;;;;;5038367;28;20420;-69
2023/04/10 01:55:07;;;;;;;29.38;18.08;;;8.60;99.90;;;;;;5032734;28;20522;-70
2023/04/10 01:57:35;;;;;;;26.55;18.05;;;8.60;99.90;;;;;;5035765;28;20047;-70
2023/04/10 02:00:04;;;;;;;27.20;18.33;;;8.60;99.90;;;;;;5034866;28;20087;-70
2023/04/10 02:02:33;;;;;;;28.98;17.60;;;8.60;99.90;;;;;;5032710;28;20056;-70
2023/04/10 02:04:59;;;;;;;25.30;18.55;;;8.50;99.90;;;;;;5035271;28;20025;-70
2023/04/10 02:08:03;;;;;;;28.27;17.90;;;8.50;99.90;;;;;;5035428;28;20017;-70
2023/04/10 02:10:49;;;;;;;26.05;17.55;;;8.50;99.90;;;;;;5033872;28;20033;-70
2023/04/10 02:13:19;;;;;;;26.08;16.40;;;8.50;99.90;;;;;;5031234;28;20048;-70
2023/04/10 02:15:46;;;;;;;27.67;18.52;;;8.50;99.90;;;;;;5036747;28;20021;-70
2023/04/10 02:18:15;;;;;;;29.85;18.25;;;8.50;99.90;;;;;;5034006;28;20061;-70
2023/04/10 02:20:41;;;;;;;26.80;17.50;;;8.40;99.90;;;;;;5031625;28;20475;-70
2023/04/10 02:23:07;;;;;;;26.17;16.90;;;8.40;99.90;;;;;;5034003;28;20507;-69
2023/04/10 02:25:34;;;;;;;28.08;17.17;;;8.40;99.90;;;;;;5034670;28;20025;-70
2023/04/10 02:28:07;;;;;;;27.73;18.58;;;8.40;99.90;;;;;;5034725;28;20036;-70
2023/04/10 02:30:33;;;;;;;27.50;17.48;;;8.40;99.90;;;;;;5035282;28;20082;-69
2023/04/10 02:32:59;;;;;;;24.30;17.17;;;8.40;99.90;;;;;;5033255;28;20060;-69
2023/04/10 02:35:25;;;;;;;26.90;18.23;;;8.40;99.90;;;;;;5037460;28;20591;-70
2023/04/10 02:37:51;;;;;;;27.15;17.05;;;8.40;99.90;;;;;;5029524;28;20349;-70
2023/04/10 02:40:17;;;;;;;26.60;16.73;;;8.40;99.90;;;;;;5037345;28;20124;-70
2023/04/10 02:42:42;;;;;;;23.42;16.60;;;8.30;99.90;;;;;;5029046;28;20040;-69
2023/04/10 02:45:09;;;;;;;25.52;17.45;;;8.30;99.90;;;;;;5035474;28;20389;-69
2023/04/10 02:47:35;;;;;;;24.77;16.90;;;8.30;99.90;;;;;;5034155;28;20048;-70
2023/04/10 02:50:00;;;;;;;29.52;19.52;;;8.20;99.90;;;;;;5035583;28;20029;-69
2023/04/10 02:52:26;;;;;;;25.92;17.08;;;8.20;99.90;;;;;;5031318;28;20040;-69
2023/04/10 02:54:51;;;;;;;25.85;17.63;;;8.10;99.90;;;;;;5037027;28;20033;-69
2023/04/10 02:57:17;;;;;;;26.80;17.65;;;8.10;99.90;;;;;;5028189;28;20032;-69
2023/04/10 02:59:43;;;;;;;28.10;17.95;;;8.20;99.90;;;;;;5036037;28;20110;-69
2023/04/10 03:02:10;;;;;;;27.05;17.30;;;8.20;99.90;;;;;;5029033;28;20488;-69
2023/04/10 03:04:35;;;;;;;27.48;17.70;;;8.10;99.90;;;;;;5035517;28;20692;-69
2023/04/10 03:07:01;;;;;;;30.55;18.00;;;8.10;99.90;;;;;;5033128;28;20033;-69
2023/04/10 03:09:27;;;;;;;24.27;16.27;;;8.10;99.90;;;;;;5035496;28;20260;-69
2023/04/10 03:11:53;;;;;;;23.27;16.45;;;8.10;99.90;;;;;;5028544;28;20029;-69
2023/04/10 03:14:19;;;;;;;24.38;16.42;;;8.10;99.90;;;;;;5034203;28;20098;-69
2023/04/10 03:16:46;;;;;;;24.60;17.58;;;8.10;99.90;;;;;;5032929;28;20129;-69
2023/04/10 03:19:12;;;;;;;23.00;15.93;;;8.10;99.90;;;;;;5030384;28;20037;-69
2023/04/10 03:21:38;;;;;;;22.40;15.20;;;8.10;99.90;;;;;;5034563;28;20160;-68
2023/04/10 03:24:04;;;;;;;25.38;17.30;;;8.10;99.90;;;;;;5031094;28;20028;-68
2023/04/10 03:26:30;;;;;;;23.95;16.85;;;8.10;99.90;;;;;;5032610;28;20505;-68
2023/04/10 03:28:56;;;;;;;24.90;16.67;;;8.10;99.90;;;;;;5033522;28;20121;-69
2023/04/10 03:31:21;;;;;;;25.20;17.88;;;8.10;99.90;;;;;;5032355;28;20079;-69
2023/04/10 03:33:47;;;;;;;27.42;17.70;;;8.00;99.90;;;;;;5029588;28;20048;-68
2023/04/10 03:36:13;;;;;;;24.85;16.90;;;8.00;99.90;;;;;;5028608;28;20028;-71
2023/04/10 03:38:38;;;;;;;23.95;17.42;;;8.00;99.90;;;;;;5031793;28;20027;-70
2023/04/10 03:41:04;;;;;;;28.30;18.75;;;7.90;99.90;;;;;;5036412;28;20079;-69
2023/04/10 03:43:30;;;;;;;27.23;17.80;;;7.90;99.90;;;;;;5029538;28;20091;-69
2023/04/10 03:45:55;;;;;;;30.05;19.05;;;7.90;99.90;;;;;;5040827;28;20029;-69
2023/04/10 03:48:21;;;;;;;30.77;18.65;;;7.90;99.90;;;;;;5030414;28;20037;-69
2023/04/10 03:50:47;;;;;;;26.67;18.55;;;7.90;99.90;;;;;;5033030;28;20555;-69
2023/04/10 03:53:12;;;;;;;29.98;19.65;;;7.90;99.90;;;;;;5018620;28;20030;-68
2023/04/10 03:55:39;;;;;;;27.25;19.08;;;7.90;99.90;;;;;;5024792;28;20029;-69
2023/04/10 03:58:05;;;;;;;30.65;18.60;;;7.80;99.90;;;;;;5031365;28;20043;-69
2023/04/10 04:00:31;;;;;;;28.83;18.73;;;7.80;99.90;;;;;;5031815;28;20049;-69
2023/04/10 04:02:57;;;;;;;28.10;18.10;;;7.80;99.90;;;;;;5030434;28;20152;-68
2023/04/10 04:05:23;;;;;;;27.42;18.98;;;7.80;99.90;;;;;;5032951;28;20511;-68
2023/04/10 04:07:49;;;;;;;33.60;21.45;;;7.70;99.90;;;;;;5030118;28;20045;-69
2023/04/10 04:10:15;;;;;;;33.67;20.10;;;7.70;99.90;;;;;;5029983;28;20021;-69
2023/04/10 04:12:40;;;;;;;31.60;19.05;;;7.70;99.90;;;;;;5030672;28;20329;-69
2023/04/10 04:15:06;;;;;;;34.20;21.52;;;7.70;99.90;;;;;;5028450;28;20030;-68
2023/04/10 04:17:32;;;;;;;27.63;20.42;;;7.70;99.90;;;;;;5029909;28;20416;-68
2023/04/10 04:19:58;;;;;;;32.08;20.38;;;7.70;99.90;;;;;;5033711;28;20021;-69
2023/04/10 04:22:23;;;;;;;36.00;21.77;;;7.60;99.90;;;;;;5028168;28;20039;-69
2023/04/10 04:24:49;;;;;;;33.17;22.10;;;7.70;99.90;;;;;;5036813;28;20029;-69
2023/04/10 04:27:15;;;;;;;30.40;21.05;;;7.70;99.90;;;;;;5039354;28;20025;-68
2023/04/10 04:29:40;;;;;;;28.95;20.52;;;7.70;99.90;;;;;;5035833;28;20043;-69
2023/04/10 04:32:06;;;;;;;33.00;22.63;;;7.70;99.90;;;;;;5030078;28;20026;-69
2023/04/10 04:34:31;;;;;;;32.25;21.17;;;7.70;99.90;;;;;;5030250;28;20114;-70
2023/04/10 04:36:57;;;;;;;27.95;20.67;;;7.60;99.90;;;;;;5030145;28;20029;-69
2023/04/10 04:39:23;;;;;;;31.60;21.33;;;7.60;99.90;;;;;;5030586;28;20032;-70
2023/04/10 04:41:48;;;;;;;33.17;21.30;;;7.60;99.90;;;;;;5024006;28;20037;-69
2023/04/10 04:44:18;;;;;;;33.22;23.05;;;7.60;99.90;;;;;;5034590;28;20056;-70
2023/04/10 04:46:44;;;;;;;32.42;22.15;;;7.60;99.90;;;;;;5030787;28;20143;-70
2023/04/10 04:49:10;;;;;;;33.35;22.23;;;7.60;99.90;;;;;;5034568;28;20797;-70
2023/04/10 04:51:37;;;;;;;38.28;23.08;;;7.70;99.90;;;;;;5035035;28;20075;-69
2023/04/10 04:54:02;;;;;;;32.95;21.65;;;7.60;99.90;;;;;;5035041;28;20042;-70
2023/04/10 04:56:28;;;;;;;33.20;23.15;;;7.60;99.90;;;;;;5032936;28;20033;-70
2023/04/10 04:58:54;;;;;;;33.17;22.27;;;7.60;99.90;;;;;;5036960;28;20456;-70
2023/04/10 05:01:19;;;;;;;33.60;22.25;;;7.60;99.90;;;;;;5029660;28;20049;-68
2023/04/10 05:03:45;;;;;;;31.88;21.23;;;7.60;99.90;;;;;;5034407;28;20037;-70
2023/04/10 05:06:11;;;;;;;31.55;21.55;;;7.60;99.90;;;;;;5026442;28;20033;-68
2023/04/10 05:08:36;;;;;;;33.72;21.40;;;7.60;99.90;;;;;;5040228;28;20535;-68
2023/04/10 05:11:02;;;;;;;33.17;21.58;;;7.70;99.90;;;;;;5030869;28;20038;-68
2023/04/10 05:13:27;;;;;;;27.40;20.50;;;7.70;99.90;;;;;;5027534;28;20073;-67
2023/04/10 05:15:53;;;;;;;33.95;22.67;;;7.70;99.90;;;;;;5033353;28;20052;-68
2023/04/10 05:18:22;;;;;;;32.10;22.00;;;7.70;99.90;;;;;;5034027;28;20553;-69
2023/04/10 05:20:48;;;;;;;30.38;23.00;;;7.80;99.90;;;;;;5042733;28;20087;-69
2023/04/10 05:23:14;;;;;;;30.17;21.90;;;7.80;99.90;;;;;;5038182;28;20075;-69
2023/04/10 05:25:40;;;;;;;32.75;22.10;;;7.80;99.90;;;;;;5039820;28;20415;-69
2023/04/10 05:28:06;;;;;;;28.95;20.60;;;7.90;99.90;;;;;;5031138;28;20034;-69
2023/04/10 05:30:31;;;;;;;26.90;20.35;;;7.90;99.90;;;;;;5049444;28;20049;-70
2023/04/10 05:32:57;;;;;;;37.65;22.88;;;7.90;99.90;;;;;;5028898;28;20141;-70
2023/04/10 05:35:22;;;;;;;31.10;21.27;;;8.00;99.90;;;;;;5035661;28;20101;-70
2023/04/10 05:37:48;;;;;;;28.55;21.27;;;8.10;99.90;;;;;;5034838;28;20029;-70
2023/04/10 05:40:14;;;;;;;32.20;20.83;;;8.10;99.90;;;;;;5033522;28;20108;-69
2023/04/10 05:42:40;;;;;;;30.02;20.73;;;8.20;99.90;;;;;;5035142;28;20031;-69
2023/04/10 05:45:06;;;;;;;28.73;20.13;;;8.20;99.90;;;;;;5030665;28;20032;-69
2023/04/10 05:47:32;;;;;;;27.23;19.60;;;8.20;99.90;;;;;;5028655;28;20725;-68
2023/04/10 05:49:57;;;;;;;28.05;17.88;;;8.30;99.90;;;;;;5034157;28;20037;-70
2023/04/10 05:52:23;;;;;;;26.65;19.25;;;8.40;99.90;;;;;;5026289;28;20029;-68
2023/04/10 05:54:49;;;;;;;26.50;17.80;;;8.40;99.90;;;;;;5030302;28;20042;-69
2023/04/10 05:57:15;;;;;;;22.45;16.88;;;8.50;99.90;;;;;;5029061;28;20025;-70
2023/04/10 05:59:40;;;;;;;24.25;17.25;;;8.60;99.90;;;;;;5025861;28;20069;-69
2023/04/10 06:02:06;;;;;;;26.25;17.55;;;8.60;99.90;;;;;;5028548;28;20029;-69
2023/04/10 06:04:31;;;;;;;26.08;15.40;;;8.70;99.90;;;;;;5034802;28;20045;-70
2023/04/10 06:06:57;;;;;;;21.23;15.63;;;8.80;99.90;;;;;;5032950;28;20538;-69
2023/04/10 06:09:23;;;;;;;23.58;16.15;;;8.80;99.90;;;;;;5031376;28;20120;-69
2023/04/10 06:11:48;;;;;;;20.17;15.15;;;8.90;99.90;;;;;;5032121;28;20037;-70
2023/04/10 06:14:14;;;;;;;19.75;14.90;;;9.00;99.90;;;;;;5020690;28;20041;-69
2023/04/10 06:16:40;;;;;;;20.13;13.70;;;9.20;99.90;;;;;;5031751;28;20082;-69
2023/04/10 06:19:06;;;;;;;22.45;15.70;;;9.20;99.90;;;;;;5017280;28;20476;-69
2023/04/10 06:21:31;;;;;;;22.67;16.15;;;9.30;99.90;;;;;;5021746;28;20029;-68
2023/04/10 06:23:57;;;;;;;22.38;15.27;;;9.40;99.90;;;;;;5020344;28;20108;-69
2023/04/10 06:26:24;;;;;;;22.02;15.88;;;9.50;99.90;;;;;;5034184;28;20496;-69
2023/04/10 06:28:50;;;;;;;22.67;15.90;;;9.60;99.90;;;;;;5030869;28;20040;-69
2023/04/10 06:31:18;;;;;;;24.02;16.38;;;9.60;99.90;;;;;;5028438;28;20022;-70
2023/04/10 06:33:44;;;;;;;22.27;15.68;;;9.70;99.90;;;;;;5026123;28;20124;-69
2023/04/10 06:36:09;;;;;;;22.95;16.98;;;9.70;99.90;;;;;;5032378;28;20167;-68
2023/04/10 06:38:36;;;;;;;22.33;16.73;;;9.80;99.90;;;;;;5025853;28;20453;-68
2023/04/10 06:41:04;;;;;;;20.83;14.40;;;10.00;99.90;;;;;;5032132;28;20021;-69
2023/04/10 06:43:31;;;;;;;22.98;16.88;;;10.00;99.90;;;;;;5029415;28;20043;-68
2023/04/10 06:45:57;;;;;;;22.45;15.93;;;10.10;99.90;;;;;;5032972;28;20079;-69
2023/04/10 06:48:22;;;;;;;24.23;17.23;;;10.20;99.90;;;;;;5026638;28;20029;-69
2023/04/10 06:50:48;;;;;;;32.53;16.88;;;10.30;99.90;;;;;;5026829;28;20029;-69
2023/04/10 06:53:13;;;;;;;27.27;17.70;;;10.40;99.90;;;;;;5028106;28;20041;-68
2023/04/10 06:55:39;;;;;;;25.00;16.75;;;10.40;99.90;;;;;;5033296;28;20112;-69
2023/04/10 06:58:04;;;;;;;26.13;19.55;;;10.50;99.90;;;;;;5034963;28;20076;-68
2023/04/10 07:00:30;;;;;;;30.17;20.63;;;10.50;99.90;;;;;;5032256;28;20144;-68
2023/04/10 07:02:56;;;;;;;27.77;19.95;;;10.60;99.90;;;;;;5030457;28;20029;-69
2023/04/10 07:05:22;;;;;;;35.45;21.80;;;10.60;99.90;;;;;;5036182;28;20021;-69
2023/04/10 07:07:49;;;;;;;26.33;20.52;;;10.70;99.90;;;;;;5020087;28;20040;-68
2023/04/10 07:10:15;;;;;;;27.50;20.00;;;10.80;99.90;;;;;;5026833;28;20060;-69
2023/04/10 07:12:40;;;;;;;29.25;21.13;;;10.90;99.90;;;;;;5023418;28;20504;-69
2023/04/10 07:15:07;;;;;;;29.55;22.45;;;10.90;99.90;;;;;;5025952;28;20061;-69
2023/04/10 07:17:33;;;;;;;29.17;21.70;;;11.00;99.90;;;;;;5011878;28;20658;-69
2023/04/10 07:19:58;;;;;;;30.02;21.42;;;11.00;99.90;;;;;;5030565;28;20112;-69
2023/04/10 07:22:24;;;;;;;31.40;22.25;;;11.10;99.90;;;;;;5026940;28;21258;-69
2023/04/10 07:24:50;;;;;;;31.35;23.35;;;11.10;99.90;;;;;;5015118;28;20029;-69
2023/04/10 07:27:16;;;;;;;35.92;25.27;;;11.20;99.90;;;;;;5015992;28;20026;-70
2023/04/10 07:29:41;;;;;;;33.47;23.58;;;11.20;99.90;;;;;;5017962;28;20506;-69
2023/04/10 07:32:07;;;;;;;35.53;22.92;;;11.30;99.90;;;;;;5036953;28;20049;-69
2023/04/10 07:34:33;;;;;;;32.03;22.00;;;11.30;99.90;;;;;;5015772;28;20037;-69
2023/04/10 07:36:58;;;;;;;31.92;23.00;;;11.40;99.90;;;;;;5042151;28;20040;-69
2023/04/10 07:39:24;;;;;;;36.42;24.38;;;11.50;99.90;;;;;;5023213;28;20030;-70
2023/04/10 07:41:52;;;;;;;33.22;23.90;;;11.50;99.90;;;;;;5033970;28;20463;-69
2023/04/10 07:44:18;;;;;;;33.15;24.88;;;11.50;99.90;;;;;;5034707;28;20504;-69
2023/04/10 07:46:44;;;;;;;40.17;25.25;;;11.60;99.90;;;;;;5036483;28;20121;-69
2023/04/10 07:49:10;;;;;;;33.17;25.50;;;11.60;99.90;;;;;;5033110;28;20096;-69
2023/04/10 07:51:36;;;;;;;34.38;24.80;;;11.70;99.90;;;;;;5025242;28;20127;-69
2023/04/10 07:54:03;;;;;;;35.63;25.63;;;11.70;99.90;;;;;;5014311;28;20440;-69
2023/04/10 07:56:30;;;;;;;39.15;27.70;;;11.70;99.90;;;;;;5014911;28;20029;-70
2023/04/10 07:58:59;;;;;;;37.05;26.33;;;11.80;99.90;;;;;;5039406;28;20038;-71
2023/04/10 08:01:26;;;;;;;36.08;25.05;;;11.90;99.90;;;;;;5029163;28;20118;-63
2023/04/10 08:03:51;;;;;;;36.38;25.83;;;11.90;99.90;;;;;;5028122;28;20040;-64
2023/04/10 08:06:17;;;;;;;34.42;25.75;;;11.90;99.80;;;;;;5018847;28;20128;-64
2023/04/10 08:08:43;;;;;;;38.22;25.20;;;12.00;99.80;;;;;;5028714;28;20032;-64
2023/04/10 08:11:26;;;;;;;35.10;25.85;;;12.10;99.70;;;;;;5019542;28;20441;-64
2023/04/10 08:13:53;;;;;;;35.42;24.30;;;12.20;99.60;;;;;;5032896;28;20543;-63
2023/04/10 08:16:23;;;;;;;33.10;23.77;;;12.20;99.60;;;;;;5024805;28;20033;-63
2023/04/10 08:18:50;;;;;;;33.03;24.08;;;12.30;99.50;;;;;;5029899;28;20560;-64
2023/04/10 08:21:15;;;;;;;37.40;25.30;;;12.30;99.50;;;;;;5037792;28;20033;-64
2023/04/10 08:23:41;;;;;;;31.35;22.70;;;12.40;99.40;;;;;;5015451;28;20080;-63
2023/04/10 08:26:07;;;;;;;33.42;23.35;;;12.50;99.40;;;;;;5038601;28;20070;-65
2023/04/10 08:28:32;;;;;;;32.85;24.05;;;12.60;99.30;;;;;;5024562;28;20038;-63
2023/04/10 08:30:58;;;;;;;39.42;26.05;;;12.70;99.40;;;;;;5014799;28;20049;-63
2023/04/10 08:33:23;;;;;;;37.70;26.33;;;12.70;99.10;;;;;;5012281;28;20025;-71
2023/04/10 08:35:49;;;;;;;34.50;24.13;;;12.80;99.00;;;;;;5026050;28;20291;-70
2023/04/10 08:38:14;;;;;;;35.85;24.90;;;12.90;99.00;;;;;;5035230;28;20386;-65
2023/04/10 08:40:40;;;;;;;35.40;23.98;;;12.90;98.90;;;;;;5038370;28;20024;-63
2023/04/10 08:43:06;;;;;;;35.80;23.80;;;13.00;98.80;;;;;;5037475;28;20500;-64
2023/04/10 08:45:32;;;;;;;31.70;23.05;;;13.00;98.70;;;;;;5021491;28;20477;-64
2023/04/10 08:48:03;;;;;;;32.10;22.38;;;13.10;98.60;;;;;;5045131;28;20105;-64
2023/04/10 08:50:32;;;;;;;28.40;18.60;;;13.20;98.60;;;;;;5014789;28;20049;-64
2023/04/10 08:53:01;;;;;;;29.65;19.73;;;13.30;98.30;;;;;;5036560;28;20258;-63
2023/04/10 08:55:27;;;;;;;28.33;17.70;;;13.30;98.20;;;;;;5024706;28;20083;-63
2023/04/10 08:57:52;;;;;;;22.80;15.43;;;13.40;98.10;;;;;;5029619;28;20032;-63
2023/04/10 09:00:18;;;;;;;23.40;17.30;;;13.50;97.90;;;;;;5025727;28;20046;-63
2023/04/10 09:02:44;;;;;;;24.13;16.35;;;13.50;97.60;;;;;;5014921;28;20026;-63
2023/04/10 09:05:11;;;;;;;25.80;17.50;;;13.60;97.40;;;;;;5014705;28;20065;-63
2023/04/10 09:07:37;;;;;;;25.80;17.83;;;13.60;97.30;;;;;;5027913;28;20029;-63
2023/04/10 09:10:04;;;;;;;23.35;17.25;;;13.70;97.30;;;;;;5011693;28;20120;-63
2023/04/10 09:12:43;;;;;;;23.55;16.33;;;13.80;97.30;;;;;;5022364;28;20117;-63
2023/04/10 09:15:09;;;;;;;28.92;18.75;;;13.80;97.20;;;;;;5024158;28;20046;-63
2023/04/10 09:17:35;;;;;;;25.80;16.92;;;13.90;97.10;;;;;;5025383;28;20032;-63
2023/04/10 09:20:00;;;;;;;26.50;16.25;;;13.90;97.00;;;;;;5024077;28;20124;-62
2023/04/10 09:22:34;;;;;;;20.75;15.50;;;14.00;96.70;;;;;;5022329;28;20029;-62
2023/04/10 09:25:01;;;;;;;28.90;17.42;;;14.00;96.40;;;;;;5016462;28;20038;-62
2023/04/10 09:27:30;;;;;;;23.30;15.85;;;14.10;96.60;;;;;;5016161;28;20084;-62
2023/04/10 09:29:56;;;;;;;26.55;17.75;;;14.10;96.30;;;;;;5030934;28;20083;-63
2023/04/10 09:32:41;;;;;;;25.95;17.88;;;14.20;96.20;;;;;;5029404;28;20029;-63
2023/04/10 09:35:08;;;;;;;21.60;14.68;;;14.20;96.00;;;;;;5030722;28;20156;-63
2023/04/10 09:37:35;;;;;;;20.02;14.75;;;14.30;96.10;;;;;;5037491;28;20041;-62
2023/04/10 09:40:01;;;;;;;23.88;15.40;;;14.30;96.00;;;;;;5018568;28;20444;-63
2023/04/10 09:42:31;;;;;;;18.67;14.30;;;14.40;96.00;;;;;;5020967;28;20100;-62
2023/04/10 09:44:57;;;;;;;20.23;14.40;;;14.50;96.00;;;;;;5032348;28;20025;-62
2023/04/10 09:47:23;;;;;;;18.90;13.13;;;14.60;95.90;;;;;;5029784;28;20029;-62
2023/04/10 09:49:51;;;;;;;21.58;14.90;;;14.60;95.80;;;;;;5025539;28;20025;-62
2023/04/10 09:52:30;;;;;;;24.77;14.20;;;14.70;95.80;;;;;;5034600;28;20030;-62
2023/04/10 09:54:58;;;;;;;22.33;13.80;;;14.80;95.80;;;;;;5016541;28;20046;-63
2023/04/10 09:57:26;;;;;;;17.65;13.35;;;14.80;95.70;;;;;;5047909;28;20033;-63
2023/04/10 09:59:54;;;;;;;20.88;13.43;;;14.90;95.60;;;;;;5034186;28;20048;-63
2023/04/10 10:02:22;;;;;;;21.05;14.15;;;15.00;95.40;;;;;;5049618;28;20048;-63
2023/04/10 10:04:49;;;;;;;15.60;12.15;;;15.00;95.30;;;;;;5019434;28;20040;-63
2023/04/10 10:07:16;;;;;;;19.17;14.20;;;15.00;95.30;;;;;;5029883;28;20034;-63
2023/04/10 10:09:43;;;;;;;23.00;15.13;;;15.10;95.30;;;;;;5020100;28;20073;-63
2023/04/10 10:12:11;;;;;;;18.80;13.88;;;15.20;95.20;;;;;;5031802;28;20040;-63
2023/04/10 10:14:58;;;;;;;21.33;14.20;;;15.30;95.10;;;;;;5028149;28;20182;-63
2023/04/10 10:17:28;;;;;;;19.17;13.02;;;15.30;95.00;;;;;;5013233;28;20380;-62
2023/04/10 10:20:15;;;;;;;19.30;12.85;;;15.40;95.10;;;;;;5032880;28;20473;-62
2023/04/10 10:22:41;;;;;;;20.90;13.80;;;15.50;95.00;;;;;;5031698;28;20033;-63
2023/04/10 10:25:08;;;;;;;19.02;12.90;;;15.50;94.70;;;;;;5023105;28;20037;-63
2023/04/10 10:27:36;;;;;;;15.73;10.85;;;15.60;94.50;;;;;;5015715;28;20516;-62
2023/04/10 10:30:02;;;;;;;16.63;11.93;;;15.60;94.30;;;;;;5017759;28;20430;-64
2023/04/10 10:32:29;;;;;;;16.98;10.60;;;15.70;94.40;;;;;;5014518;28;20029;-63
2023/04/10 10:34:56;;;;;;;17.40;10.82;;;15.70;94.20;;;;;;5014928;28;20045;-62
2023/04/10 10:37:22;;;;;;;13.65;9.23;;;15.80;93.90;;;;;;5013013;28;20029;-63
2023/04/10 10:40:16;;;;;;;15.25;9.32;;;15.90;93.60;;;;;;5015322;28;20116;-63
2023/04/10 10:43:01;;;;;;;13.45;9.32;;;15.90;93.50;;;;;;5021337;28;20116;-63
2023/04/10 10:45:38;;;;;;;13.18;9.32;;;16.00;93.40;;;;;;5040494;28;20029;-63
2023/04/10 10:48:06;;;;;;;11.98;8.65;;;16.00;93.30;;;;;;5025756;28;20409;-63
2023/04/10 10:51:04;;;;;;;12.65;9.15;;;16.10;93.00;;;;;;5023473;28;20068;-62
2023/04/10 10:53:40;;;;;;;10.65;8.02;;;16.20;93.10;;;;;;5017849;28;20500;-61
2023/04/10 10:56:17;;;;;;;11.20;7.13;;;16.20;92.80;;;;;;5036349;28;20048;-62
2023/04/10 10:58:57;;;;;;;12.60;7.60;;;16.20;92.60;;;;;;5030429;28;20106;-63
2023/04/10 11:01:23;;;;;;;12.85;7.75;;;16.30;92.20;;;;;;5034788;28;20272;-63
2023/04/10 11:03:49;;;;;;;11.95;8.10;;;16.40;92.10;;;;;;5024053;28;20033;-63
2023/04/10 11:06:18;;;;;;;9.93;6.80;;;16.40;92.00;;;;;;5019446;28;20044;-63
2023/04/10 11:08:54;;;;;;;12.95;7.05;;;16.40;91.80;;;;;;5016683;28;20156;-63
2023/04/10 11:11:23;;;;;;;13.52;7.72;;;16.40;91.80;;;;;;5023738;28;20113;-63
2023/04/10 11:13:52;;;;;;;10.52;7.20;;;16.60;91.80;;;;;;5016145;28;20049;-63
2023/04/10 11:16:22;;;;;;;9.65;6.97;;;16.60;91.60;;;;;;5031651;28;20021;-62
2023/04/10 11:18:47;;;;;;;9.40;7.05;;;16.60;91.50;;;;;;5021185;28;20061;-62
2023/04/10 11:21:15;;;;;;;11.85;7.65;;;16.60;91.40;;;;;;5028675;28;20485;-63
2023/04/10 11:23:50;;;;;;;12.77;9.35;;;16.70;91.40;;;;;;5019798;28;20022;-63
2023/04/10 11:26:38;;;;;;;11.15;6.97;;;16.70;91.10;;;;;;5011767;28;20569;-63
2023/04/10 11:29:04;;;;;;;10.73;7.55;;;16.80;91.20;;;;;;5014683;28;20041;-63
2023/04/10 11:31:31;;;;;;;11.80;7.10;;;16.80;91.20;;;;;;5029130;28;20025;-64
2023/04/10 11:34:05;;;;;;;9.98;8.18;;;16.80;91.30;;;;;;5018971;28;20077;-63
2023/04/10 11:36:37;;;;;;;9.13;6.38;;;16.90;91.20;;;;;;5024570;28;20159;-63
2023/04/10 11:39:09;;;;;;;13.18;8.18;;;16.90;90.90;;;;;;5012596;28;20390;-63
2023/04/10 11:41:37;;;;;;;13.05;8.68;;;16.90;90.40;;;;;;5012413;28;20111;-64
2023/04/10 11:44:11;;;;;;;14.02;8.50;;;16.90;90.60;;;;;;5012103;28;20026;-63
2023/04/10 11:46:38;;;;;;;11.23;7.90;;;16.90;90.50;;;;;;5018266;28;20017;-64
2023/04/10 11:49:05;;;;;;;10.80;7.78;;;16.90;90.60;;;;;;5015181;28;20152;-63
2023/04/10 11:51:32;;;;;;;10.48;8.23;;;17.00;90.60;;;;;;5012782;28;20401;-63
2023/04/10 11:54:11;;;;;;;10.82;8.27;;;17.00;90.40;;;;;;5028713;28;20041;-63
2023/04/10 11:56:38;;;;;;;12.70;8.75;;;17.00;90.20;;;;;;5024704;28;20022;-63
2023/04/10 11:59:13;;;;;;;11.43;7.32;;;17.00;90.20;;;;;;5009613;28;20030;-63
2023/04/10 12:01:40;;;;;;;9.48;7.53;;;17.00;89.90;;;;;;5011627;28;20038;-63
2023/04/10 12:04:19;;;;;;;9.50;6.88;;;17.00;89.40;;;;;;5012610;28;20634;-63
2023/04/10 12:06:54;;;;;;;9.38;7.00;;;17.00;88.80;;;;;;5011330;28;20076;-64
2023/04/10 12:09:21;;;;;;;11.45;8.23;;;17.00;89.10;;;;;;5030913;28;20026;-70
2023/04/10 12:11:58;;;;;;;9.32;7.30;;;17.10;89.10;;;;;;5010791;28;20026;-67
2023/04/10 12:14:33;;;;;;;12.90;6.90;;;17.10;88.60;;;;;;5013533;28;20061;-65
2023/04/10 12:17:00;;;;;;;11.27;7.07;;;17.10;88.10;;;;;;5022384;28;20025;-66
2023/04/10 12:19:26;;;;;;;10.52;6.45;;;17.10;88.10;;;;;;5025886;28;20021;-63
2023/04/10 12:21:52;;;;;;;7.93;6.30;;;17.10;87.50;;;;;;5051114;28;20025;-63
2023/04/10 12:24:42;;;;;;;8.32;5.93;;;17.20;87.10;;;;;;5025448;28;20034;-63
2023/04/10 12:27:27;;;;;;;8.45;5.38;;;17.30;87.00;;;;;;5015744;28;20030;-63
2023/04/10 12:29:54;;;;;;;;;;;17.30;86.70;;;;;;5024300;28;20105;-63
2023/04/10 12:32:20;;;;;;;7.07;4.93;;;17.30;86.40;;;;;;5028613;28;19955;-63
2023/04/10 12:34:56;;;;;;;9.20;6.05;;;17.30;86.80;;;;;;5023918;28;20529;-69
2023/04/10 12:37:22;;;;;;;7.18;5.80;;;17.40;86.50;;;;;;5011837;28;20044;-71
2023/04/10 12:39:48;;;;;;;7.68;4.78;;;17.40;85.40;;;;;;5011189;28;20034;-73
2023/04/10 12:42:21;;;;;;;8.82;5.75;;;17.50;85.00;;;;;;5017751;28;20112;-73